createdAt,value
2019-01-09T00:01:52.456Z,44.27
2019-01-09T00:04:23.023Z,46.40
2019-01-09T00:06:53.528Z,40.50
2019-01-09T00:09:24.061Z,47.30
2019-01-09T00:11:54.631Z,45.97
2019-01-09T00:14:36.404Z,41.43
2019-01-09T00:17:07.072Z,49.20
2019-01-09T00:19:37.592Z,44.67
2019-01-09T00:22:09.454Z,43.13
2019-01-09T00:24:39.976Z,43.83
2019-01-09T00:27:10.552Z,37.70
2019-01-09T00:29:41.050Z,43.37
2019-01-09T00:32:11.651Z,43.77
2019-01-09T00:34:42.179Z,48.43
2019-01-09T00:37:12.737Z,33.43
2019-01-09T00:39:43.262Z,40.73
2019-01-09T00:42:13.754Z,41.70
2019-01-09T00:44:44.334Z,37.70
2019-01-09T00:47:14.862Z,40.53
2019-01-09T00:49:45.384Z,39.00
2019-01-09T00:52:15.924Z,45.27
2019-01-09T00:54:46.566Z,46.37
2019-01-09T00:57:17.221Z,42.57
2019-01-09T00:59:47.739Z,46.57
2019-01-09T01:02:47.143Z,48.80
2019-01-09T01:05:34.226Z,47.33
2019-01-09T01:08:32.254Z,40.87
2019-01-09T01:11:29.807Z,45.00
2019-01-09T01:14:33.853Z,48.17
2019-01-09T01:17:34.611Z,48.30
2019-01-09T01:20:12.642Z,41.50
2019-01-09T01:23:28.677Z,45.80
2019-01-09T01:26:25.830Z,44.03
2019-01-09T01:29:09.731Z,36.47
2019-01-09T01:31:59.422Z,46.97
2019-01-09T01:34:55.468Z,43.90
2019-01-09T01:37:54.878Z,42.17
2019-01-09T01:40:44.983Z,44.00
2019-01-09T01:43:56.553Z,35.63
2019-01-09T01:46:49.888Z,43.67
2019-01-09T01:49:55.124Z,44.83
2019-01-09T01:52:41.930Z,40.93
2019-01-09T01:55:37.566Z,44.00
2019-01-09T01:58:31.131Z,39.57
2019-01-09T02:01:30.264Z,43.50
2019-01-09T02:04:25.103Z,39.63
2019-01-09T02:07:12.422Z,46.13
2019-01-09T02:10:10.245Z,49.13
2019-01-09T02:13:12.432Z,48.73
2019-01-09T02:16:12.051Z,39.83
2019-01-09T02:19:05.113Z,43.47
2019-01-09T02:21:42.945Z,40.97
2019-01-09T02:24:21.090Z,44.10
2019-01-09T02:27:08.987Z,41.50
2019-01-09T02:30:12.470Z,42.43
2019-01-09T02:32:42.988Z,48.40
2019-01-09T02:35:13.470Z,44.87
2019-01-09T02:37:43.999Z,44.83
2019-01-09T02:40:14.529Z,39.30
2019-01-09T02:42:45.056Z,43.90
2019-01-09T02:45:15.556Z,44.87
2019-01-09T02:47:46.068Z,45.77
2019-01-09T02:50:16.567Z,42.43
2019-01-09T02:52:47.083Z,43.60
2019-01-09T02:55:17.563Z,43.30
2019-01-09T02:57:56.673Z,41.73
2019-01-09T03:00:20.337Z,45.10
2019-01-09T03:02:50.821Z,55.07
2019-01-09T03:05:21.351Z,43.33
2019-01-09T03:07:51.842Z,49.30
2019-01-09T03:10:22.370Z,46.67
2019-01-09T03:12:52.942Z,43.07
2019-01-09T03:15:25.519Z,44.13
2019-01-09T03:17:56.073Z,45.67
2019-01-09T03:20:26.634Z,42.77
2019-01-09T03:22:57.150Z,49.20
2019-01-09T03:25:27.736Z,52.13
2019-01-09T03:27:58.227Z,39.97
2019-01-09T03:30:28.823Z,45.93
2019-01-09T03:32:59.326Z,42.30
2019-01-09T03:35:29.980Z,43.60
2019-01-09T03:38:00.488Z,45.20
2019-01-09T03:40:31.073Z,44.67
2019-01-09T03:43:01.608Z,39.93
2019-01-09T03:45:32.114Z,44.47
2019-01-09T03:48:02.627Z,45.90
2019-01-09T03:50:33.133Z,46.40
2019-01-09T03:53:03.651Z,50.40
2019-01-09T03:55:34.131Z,46.67
2019-01-09T03:58:04.659Z,43.07
2019-01-09T04:00:35.137Z,48.87
2019-01-09T04:03:05.662Z,40.23
2019-01-09T04:05:36.142Z,47.20
2019-01-09T04:08:06.668Z,39.07
2019-01-09T04:10:37.155Z,41.90
2019-01-09T04:13:07.676Z,47.73
2019-01-09T04:15:38.247Z,42.03
2019-01-09T04:18:08.847Z,46.90
2019-01-09T04:20:39.342Z,41.70
2019-01-09T04:23:09.864Z,51.17
2019-01-09T04:25:40.353Z,51.73
2019-01-09T04:28:10.882Z,43.70
2019-01-09T04:30:41.371Z,54.83
2019-01-09T04:33:11.896Z,48.40
2019-01-09T04:35:42.408Z,47.73
2019-01-09T04:38:12.913Z,43.70
2019-01-09T04:40:43.429Z,50.43
2019-01-09T04:43:13.970Z,44.00
2019-01-09T04:45:44.441Z,37.87
2019-01-09T04:48:14.974Z,49.10
2019-01-09T04:50:45.477Z,35.53
2019-01-09T04:53:16.009Z,54.13
2019-01-09T04:55:46.515Z,43.60
2019-01-09T04:58:17.038Z,49.17
2019-01-09T05:00:47.530Z,45.57
2019-01-09T05:03:18.060Z,45.20
2019-01-09T05:05:48.540Z,41.00
2019-01-09T05:08:19.075Z,37.80
2019-01-09T05:10:49.566Z,40.53
2019-01-09T05:13:20.092Z,38.60
2019-01-09T05:15:50.580Z,46.40
2019-01-09T05:18:21.120Z,41.37
2019-01-09T05:20:51.613Z,45.33
2019-01-09T05:23:22.142Z,42.90
2019-01-09T05:25:52.635Z,40.40
2019-01-09T05:28:23.153Z,44.50
2019-01-09T05:30:53.676Z,49.20
2019-01-09T05:33:24.170Z,39.63
2019-01-09T05:35:54.684Z,43.70
2019-01-09T05:38:25.221Z,40.50
2019-01-09T05:40:55.705Z,64.57
2019-01-09T05:43:26.231Z,115.80
2019-01-09T05:45:56.721Z,114.57
2019-01-09T05:48:27.255Z,132.97
2019-01-09T05:50:57.745Z,93.80
2019-01-09T05:53:28.293Z,51.37
2019-01-09T05:55:58.798Z,53.50
2019-01-09T05:58:29.320Z,47.97
2019-01-09T06:00:59.913Z,44.77
2019-01-09T06:03:30.418Z,47.60
2019-01-09T06:06:00.938Z,45.30
2019-01-09T06:08:31.457Z,44.30
2019-01-09T06:11:01.982Z,47.30
2019-01-09T06:13:32.499Z,37.70
2019-01-09T06:16:03.020Z,43.03
2019-01-09T06:18:33.547Z,45.50
2019-01-09T06:21:04.346Z,52.40
2019-01-09T06:23:35.543Z,49.97
2019-01-09T06:26:06.029Z,70.27
2019-01-09T06:28:36.545Z,75.90
2019-01-09T06:31:07.057Z,56.37
2019-01-09T06:33:37.594Z,44.43
2019-01-09T06:36:08.155Z,48.80
2019-01-09T06:38:38.679Z,50.23
2019-01-09T06:41:09.199Z,53.20
2019-01-09T06:43:40.359Z,52.03
2019-01-09T06:46:10.877Z,44.93
2019-01-09T06:48:41.354Z,49.40
2019-01-09T06:51:11.952Z,50.10
2019-01-09T06:53:42.490Z,46.30
2019-01-09T06:56:13.107Z,53.63
2019-01-09T06:58:43.711Z,50.27
2019-01-09T07:01:14.251Z,53.57
2019-01-09T07:03:44.761Z,51.47
2019-01-09T07:06:16.525Z,50.07
2019-01-09T07:08:47.031Z,63.67
2019-01-09T07:11:17.515Z,59.07
2019-01-09T07:13:48.037Z,56.77
2019-01-09T07:16:18.901Z,51.57
2019-01-09T07:18:49.409Z,53.60
2019-01-09T07:21:19.902Z,50.73
2019-01-09T07:23:50.431Z,52.77
2019-01-09T07:26:20.915Z,55.67
2019-01-09T07:28:51.446Z,56.27
2019-01-09T07:31:21.953Z,55.47
2019-01-09T07:33:52.550Z,52.03
2019-01-09T07:36:23.062Z,47.30
2019-01-09T07:38:53.561Z,52.80
2019-01-09T07:41:24.099Z,64.50
2019-01-09T07:43:54.569Z,60.53
2019-01-09T07:46:25.108Z,50.87
2019-01-09T07:49:14.933Z,48.40
2019-01-09T07:51:45.457Z,55.07
2019-01-09T07:54:15.977Z,121.73
2019-01-09T07:56:46.511Z,91.60
2019-01-09T07:59:17.044Z,62.17
2019-01-09T08:01:47.570Z,59.90
2019-01-09T08:04:18.076Z,75.60
2019-01-09T08:06:48.590Z,68.50
2019-01-09T08:09:19.074Z,57.80
2019-01-09T08:11:49.595Z,69.13
2019-01-09T08:14:20.269Z,65.10
2019-01-09T08:16:50.784Z,65.50
2019-01-09T08:19:21.290Z,60.40
2019-01-09T08:21:51.786Z,78.60
2019-01-09T08:24:22.391Z,100.20
2019-01-09T08:26:52.881Z,75.13
2019-01-09T08:29:23.429Z,62.20
2019-01-09T08:31:53.921Z,60.90
2019-01-09T08:34:24.434Z,65.37
2019-01-09T08:36:54.974Z,55.87
2019-01-09T08:39:25.465Z,62.07
2019-01-09T08:41:57.351Z,54.93
2019-01-09T08:44:29.549Z,60.57
2019-01-09T08:47:00.034Z,63.00
2019-01-09T08:49:31.081Z,60.43
2019-01-09T08:52:01.575Z,55.83
2019-01-09T08:54:32.877Z,58.90
2019-01-09T08:57:03.365Z,59.43
2019-01-09T08:59:33.875Z,59.33
2019-01-09T09:02:06.240Z,58.80
2019-01-09T09:04:36.760Z,55.53
2019-01-09T09:07:07.889Z,51.00
2019-01-09T09:09:38.537Z,49.70
2019-01-09T09:12:09.131Z,57.97
2019-01-09T09:14:39.678Z,61.67
2019-01-09T09:17:10.190Z,60.30
2019-01-09T09:19:40.719Z,52.57
2019-01-09T09:22:11.199Z,59.00
2019-01-09T09:24:41.773Z,55.00
2019-01-09T09:27:12.354Z,58.63
2019-01-09T09:29:42.844Z,56.10
2019-01-09T09:32:13.428Z,65.97
2019-01-09T09:34:44.018Z,62.73
2019-01-09T09:37:14.541Z,60.30
2019-01-09T09:39:46.102Z,59.27
2019-01-09T09:42:16.585Z,60.43
2019-01-09T09:44:47.099Z,59.77
2019-01-09T09:47:17.582Z,56.83
2019-01-09T09:49:48.089Z,71.10
2019-01-09T09:52:18.573Z,60.67
2019-01-09T09:54:49.090Z,64.00
2019-01-09T09:57:19.602Z,52.30
2019-01-09T09:59:50.092Z,53.97
2019-01-09T10:02:20.607Z,66.17
2019-01-09T10:04:51.093Z,62.20
2019-01-09T10:07:21.609Z,60.47
2019-01-09T10:09:52.108Z,57.63
2019-01-09T10:12:22.632Z,51.20
2019-01-09T10:14:53.121Z,97.40
2019-01-09T10:17:23.706Z,107.43
2019-01-09T10:19:54.205Z,55.93
2019-01-09T10:22:24.709Z,55.23
2019-01-09T10:24:55.226Z,54.47
2019-01-09T10:27:25.715Z,50.37
2019-01-09T10:29:56.246Z,59.27
2019-01-09T10:32:26.731Z,58.83
2019-01-09T10:34:57.260Z,58.67
2019-01-09T10:37:27.768Z,54.60
2019-01-09T10:39:58.255Z,58.50
2019-01-09T10:42:28.741Z,60.80
2019-01-09T10:45:00.820Z,65.03
2019-01-09T10:47:31.289Z,58.97
2019-01-09T10:50:01.981Z,67.20
2019-01-09T10:52:32.487Z,60.70
2019-01-09T10:55:03.061Z,115.00
2019-01-09T10:57:33.534Z,85.07
2019-01-09T11:00:07.709Z,122.03
2019-01-09T11:02:38.181Z,99.20
2019-01-09T11:05:11.506Z,78.10
2019-01-09T11:07:42.014Z,62.00
2019-01-09T11:10:16.788Z,57.80
2019-01-09T11:12:48.242Z,55.90
2019-01-09T11:15:18.953Z,61.60
2019-01-09T11:17:49.999Z,62.80
2019-01-09T11:20:22.139Z,56.30
2019-01-09T11:22:52.672Z,56.93
2019-01-09T11:25:26.331Z,54.17
2019-01-09T11:27:56.890Z,64.00
2019-01-09T11:30:28.112Z,64.70
2019-01-09T11:32:58.587Z,59.50
2019-01-09T11:35:31.781Z,61.50
2019-01-09T11:38:08.881Z,62.13
2019-01-09T11:40:40.742Z,60.77
2019-01-09T11:43:13.003Z,61.50
2019-01-09T11:45:43.470Z,54.73
2019-01-09T11:48:14.414Z,56.17
2019-01-09T11:50:49.385Z,60.60
2019-01-09T11:53:24.834Z,60.43
2019-01-09T11:55:55.723Z,59.13
2019-01-09T11:58:26.251Z,60.40
2019-01-09T12:00:56.720Z,173.50
2019-01-09T12:03:27.303Z,77.87
2019-01-09T12:05:57.893Z,59.20
2019-01-09T12:08:28.366Z,50.60
2019-01-09T12:11:00.632Z,52.87
2019-01-09T12:13:31.289Z,52.10
2019-01-09T12:16:07.926Z,48.83
2019-01-09T12:18:33.993Z,56.13
2019-01-09T12:21:04.533Z,48.57
2019-01-09T12:23:35.051Z,60.63
2019-01-09T12:26:05.982Z,50.63
2019-01-09T12:28:36.596Z,52.53
2019-01-09T12:31:07.097Z,44.70
2019-01-09T12:33:37.591Z,43.97
2019-01-09T12:36:11.058Z,48.70
2019-01-09T12:38:45.102Z,51.50
2019-01-09T12:41:17.367Z,49.20
2019-01-09T12:43:47.849Z,53.37
2019-01-09T12:46:18.377Z,48.77
2019-01-09T12:48:49.983Z,55.67
2019-01-09T12:51:20.537Z,57.20
2019-01-09T12:53:51.203Z,61.37
2019-01-09T12:56:21.717Z,61.10
2019-01-09T12:58:55.391Z,73.90
2019-01-09T13:01:25.959Z,59.70
2019-01-09T13:03:56.481Z,55.70
2019-01-09T13:06:26.954Z,52.57
2019-01-09T13:08:57.473Z,57.20
2019-01-09T13:11:27.945Z,58.97
2019-01-09T13:13:58.454Z,53.83
2019-01-09T13:16:28.916Z,51.20
2019-01-09T13:18:59.439Z,59.13
2019-01-09T13:21:30.592Z,59.43
2019-01-09T13:26:50.514Z,50.63
2019-01-09T13:29:21.272Z,59.30
2019-01-09T13:31:51.756Z,48.97
2019-01-09T13:34:22.383Z,52.40
2019-01-09T13:36:52.896Z,47.33
2019-01-09T13:39:30.707Z,55.37
2019-01-09T13:41:56.396Z,48.33
2019-01-09T13:44:31.645Z,52.80
2019-01-09T13:47:03.917Z,55.30
2019-01-09T13:49:36.104Z,47.57
2019-01-09T13:52:09.265Z,45.73
2019-01-09T13:54:52.240Z,48.77
2019-01-09T13:57:24.147Z,46.57
2019-01-09T14:00:01.113Z,44.83
2019-01-09T14:02:31.639Z,42.17
2019-01-09T14:05:03.788Z,46.37
2019-01-09T14:07:35.654Z,45.20
2019-01-09T14:10:13.944Z,43.40
2019-01-09T14:12:44.497Z,48.00
2019-01-09T14:15:18.511Z,44.53
2019-01-09T14:17:53.123Z,42.53
2019-01-09T14:20:26.562Z,45.80
2019-01-09T14:22:57.110Z,49.87
2019-01-09T14:25:27.898Z,48.37
2019-01-09T14:27:58.437Z,45.53
2019-01-09T14:30:31.054Z,45.90
2019-01-09T14:33:01.304Z,58.50
2019-01-09T14:35:33.422Z,94.43
2019-01-09T14:38:04.494Z,55.67
2019-01-09T14:40:34.969Z,51.30
2019-01-09T14:43:05.631Z,54.47
2019-01-09T14:45:36.120Z,48.80
2019-01-09T14:48:06.647Z,54.00
2019-01-09T14:50:37.125Z,57.67
2019-01-09T14:53:07.667Z,47.80
2019-01-09T14:55:38.161Z,54.57
2019-01-09T14:58:08.690Z,60.13
2019-01-09T15:00:39.336Z,53.43
2019-01-09T15:03:09.813Z,53.63
2019-01-09T15:05:40.466Z,53.30
2019-01-09T15:08:10.921Z,58.30
2019-01-09T15:10:41.559Z,56.80
2019-01-09T15:13:12.082Z,54.10
2019-01-09T15:15:42.561Z,62.67
2019-01-09T15:18:13.076Z,57.20
2019-01-09T15:20:43.581Z,57.90
2019-01-09T15:23:14.095Z,52.50
2019-01-09T15:25:44.757Z,56.47
2019-01-09T15:28:15.244Z,53.83
2019-01-09T15:30:45.766Z,55.70
2019-01-09T15:33:16.298Z,59.83
2019-01-09T15:35:48.916Z,83.23
2019-01-09T15:38:20.063Z,69.20
2019-01-09T15:40:50.687Z,66.03
2019-01-09T15:43:21.278Z,55.53
2019-01-09T15:45:51.955Z,64.43
2019-01-09T15:48:22.424Z,59.40
2019-01-09T15:50:52.930Z,49.43
2019-01-09T15:53:26.364Z,60.63
2019-01-09T15:55:57.692Z,55.93
2019-01-09T15:58:29.316Z,55.33
2019-01-09T16:00:59.800Z,53.97
2019-01-09T16:03:30.395Z,64.93
2019-01-09T16:06:00.881Z,60.23
2019-01-09T16:08:31.394Z,58.77
2019-01-09T16:11:01.876Z,62.10
2019-01-09T16:13:32.388Z,51.63
2019-01-09T16:16:02.970Z,52.53
2019-01-09T16:18:33.488Z,52.20
2019-01-09T16:21:04.140Z,52.73
2019-01-09T16:23:34.698Z,50.97
2019-01-09T16:26:06.054Z,57.83
2019-01-09T16:28:36.554Z,52.13
2019-01-09T16:31:14.566Z,57.77
2019-01-09T16:33:45.039Z,74.47
2019-01-09T16:36:15.582Z,59.00
2019-01-09T16:38:46.128Z,65.03
2019-01-09T16:41:16.637Z,67.13
2019-01-09T16:43:47.131Z,72.80
2019-01-09T16:46:17.816Z,82.57
2019-01-09T16:48:48.403Z,84.03
2019-01-09T16:51:18.951Z,79.07
2019-01-09T16:53:49.475Z,84.40
2019-01-09T16:56:19.956Z,87.33
2019-01-09T16:58:50.758Z,88.03
2019-01-09T17:01:21.246Z,75.40
2019-01-09T17:03:51.756Z,88.03
2019-01-09T17:06:22.239Z,89.60
2019-01-09T17:08:52.777Z,86.57
2019-01-09T17:11:23.299Z,91.13
2019-01-09T17:13:53.827Z,85.47
2019-01-09T17:16:24.371Z,90.57
2019-01-09T17:18:54.863Z,80.63
2019-01-09T17:21:25.840Z,99.60
2019-01-09T17:23:56.388Z,85.13
2019-01-09T17:26:26.865Z,98.17
2019-01-09T17:28:57.396Z,102.50
2019-01-09T17:31:27.876Z,97.23
2019-01-09T17:33:58.411Z,112.63
2019-01-09T17:36:28.948Z,100.53
2019-01-09T17:38:59.429Z,100.07
2019-01-09T17:41:29.981Z,112.33
2019-01-09T17:44:00.780Z,115.60
2019-01-09T17:46:31.314Z,120.17
2019-01-09T17:49:03.763Z,95.27
2019-01-09T17:51:34.275Z,98.20
2019-01-09T17:54:06.153Z,91.07
2019-01-09T17:56:36.694Z,102.00
2019-01-09T17:59:07.192Z,110.13
2019-01-09T18:01:37.744Z,109.37
2019-01-09T18:04:08.610Z,110.03
2019-01-09T18:06:39.154Z,116.57
2019-01-09T18:09:10.109Z,126.50
2019-01-09T18:11:40.723Z,109.53
2019-01-09T18:14:11.359Z,110.10
2019-01-09T18:16:42.509Z,97.97
2019-01-09T18:19:13.046Z,103.90
2019-01-09T18:21:43.537Z,188.07
2019-01-09T18:24:14.086Z,151.37
2019-01-09T18:26:44.577Z,152.50
2019-01-09T18:29:15.110Z,135.60
2019-01-09T18:31:53.069Z,140.37
2019-01-09T18:34:24.191Z,108.77
2019-01-09T18:37:05.003Z,103.60
2019-01-09T18:39:56.768Z,93.17
2019-01-09T18:42:43.220Z,87.43
2019-01-09T18:45:24.331Z,92.03
2019-01-09T18:48:37.247Z,89.50
2019-01-09T18:51:41.155Z,81.63
2019-01-09T18:54:11.642Z,92.33
2019-01-09T18:56:42.157Z,90.63
2019-01-09T18:59:13.025Z,94.73
2019-01-09T19:01:43.554Z,92.53
2019-01-09T19:04:14.045Z,86.23
2019-01-09T19:06:44.653Z,87.80
2019-01-09T19:09:15.724Z,93.50
2019-01-09T19:11:50.656Z,92.50
2019-01-09T19:14:18.443Z,88.20
2019-01-09T19:16:48.953Z,93.20
2019-01-09T19:19:19.480Z,88.87
2019-01-09T19:21:50.097Z,83.87
2019-01-09T19:24:20.651Z,86.57
2019-01-09T19:26:51.569Z,92.73
2019-01-09T19:29:22.167Z,78.20
2019-01-09T19:31:53.098Z,81.57
2019-01-09T19:34:23.943Z,79.43
2019-01-09T19:36:54.463Z,79.77
2019-01-09T19:39:25.057Z,167.93
2019-01-09T19:41:55.541Z,122.53
2019-01-09T19:44:26.067Z,78.13
2019-01-09T19:46:56.550Z,84.27
2019-01-09T19:49:27.140Z,70.70
2019-01-09T19:51:57.723Z,86.93
2019-01-09T19:54:28.210Z,81.93
2019-01-09T19:56:58.799Z,87.10
2019-01-09T19:59:29.289Z,83.07
2019-01-09T20:01:59.863Z,85.90
2019-01-09T20:04:30.423Z,78.37
2019-01-09T20:07:00.936Z,91.63
2019-01-09T20:09:31.967Z,80.63
2019-01-09T20:12:02.636Z,83.60
2019-01-09T20:14:33.214Z,92.87
2019-01-09T20:17:03.689Z,90.60
2019-01-09T20:19:34.285Z,83.17
2019-01-09T20:22:05.144Z,97.47
2019-01-09T20:24:35.771Z,89.80
2019-01-09T20:27:06.412Z,108.00
2019-01-09T20:29:36.900Z,88.60
2019-01-09T20:32:07.512Z,94.90
2019-01-09T20:34:38.001Z,90.27
2019-01-09T20:37:10.063Z,82.47
2019-01-09T20:39:40.625Z,91.53
2019-01-09T20:42:11.200Z,77.80
2019-01-09T20:44:41.698Z,84.17
2019-01-09T20:47:12.336Z,84.07
2019-01-09T20:49:42.955Z,87.63
2019-01-09T20:52:13.858Z,88.10
2019-01-09T20:54:44.369Z,88.60
2019-01-09T20:57:16.239Z,84.60
2019-01-09T20:59:47.465Z,78.23
2019-01-09T21:02:17.945Z,95.83
2019-01-09T21:04:48.729Z,76.73
2019-01-09T21:07:19.269Z,71.20
2019-01-09T21:09:49.764Z,189.53
2019-01-09T21:12:20.332Z,96.77
2019-01-09T21:14:50.849Z,119.83
2019-01-09T21:17:21.343Z,88.60
2019-01-09T21:19:51.847Z,82.97
2019-01-09T21:22:22.406Z,85.07
2019-01-09T21:24:52.937Z,78.53
2019-01-09T21:27:23.562Z,85.27
2019-01-09T21:29:54.154Z,81.97
2019-01-09T21:32:24.713Z,77.10
2019-01-09T21:34:55.224Z,77.33
2019-01-09T21:37:25.808Z,68.07
2019-01-09T21:39:56.470Z,81.37
2019-01-09T21:42:27.123Z,77.63
2019-01-09T21:44:57.610Z,75.77
2019-01-09T21:47:28.122Z,73.53
2019-01-09T21:49:58.610Z,76.17
2019-01-09T21:52:29.114Z,70.13
2019-01-09T21:54:59.666Z,85.13
2019-01-09T21:57:30.184Z,70.47
2019-01-09T22:00:00.673Z,73.73
2019-01-09T22:02:32.956Z,70.33
2019-01-09T22:05:03.546Z,76.43
2019-01-09T22:07:34.176Z,80.03
2019-01-09T22:10:11.996Z,84.83
2019-01-09T22:12:42.633Z,81.97
2019-01-09T22:15:15.688Z,91.43
2019-01-09T22:17:46.378Z,83.27
2019-01-09T22:20:18.291Z,80.13
2019-01-09T22:22:48.844Z,80.43
2019-01-09T22:25:19.369Z,87.33
2019-01-09T22:27:49.929Z,78.43
2019-01-09T22:30:26.500Z,78.73
2019-01-09T22:32:57.320Z,79.97
2019-01-09T22:35:27.972Z,72.47
2019-01-09T22:37:58.454Z,70.93
2019-01-09T22:40:29.043Z,72.93
2019-01-09T22:42:59.529Z,73.30
2019-01-09T22:45:30.049Z,71.37
2019-01-09T22:48:00.567Z,80.03
2019-01-09T22:50:31.104Z,80.27
2019-01-09T22:53:01.586Z,83.17
2019-01-09T22:55:32.109Z,71.93
2019-01-09T22:58:02.588Z,75.37
2019-01-09T23:00:50.223Z,78.57
2019-01-09T23:03:20.897Z,89.03
2019-01-09T23:05:51.453Z,114.00
2019-01-09T23:08:22.079Z,139.20
2019-01-09T23:10:55.074Z,107.27
2019-01-09T23:13:24.872Z,75.47
2019-01-09T23:15:55.410Z,69.83
2019-01-09T23:18:25.897Z,80.17
2019-01-09T23:20:56.477Z,80.17
2019-01-09T23:23:27.134Z,77.43
2019-01-09T23:25:57.771Z,70.60
2019-01-09T23:28:28.298Z,65.80
2019-01-09T23:30:58.851Z,70.10
2019-01-09T23:33:29.431Z,74.80
2019-01-09T23:36:00.097Z,66.80
2019-01-09T23:38:30.624Z,75.30
2019-01-09T23:41:01.253Z,73.57
2019-01-09T23:43:31.778Z,62.03
2019-01-09T23:46:02.282Z,70.60
2019-01-09T23:48:32.790Z,70.23
2019-01-09T23:51:03.333Z,65.57
2019-01-09T23:53:33.819Z,66.47
2019-01-09T23:56:04.567Z,68.77
2019-01-09T23:58:35.097Z,59.57
